Time;durP1;ratioP1;P1;durP2;ratioP2;P2;SDS_P1;SDS_P2;PMS_P1;PMS_P2;Temp;Humidity;BMP_temperature;BMP_pressure;BME280_temperature;BME280_humidity;BME280_pressure;Samples;Min_cycle;Max_cycle;Signal;HPM_P1;HPM_P2
2022/06/26 00:00:28;;;;;;;1.90;1.50;;;19.40;65.50;;;;;;4995216;28;20110;-78
2022/06/26 00:02:54;;;;;;;1.80;1.63;;;19.40;65.60;;;;;;4998750;28;20046;-76
2022/06/26 00:05:19;;;;;;;2.00;1.83;;;19.30;65.70;;;;;;5020138;28;20060;-77
2022/06/26 00:07:46;;;;;;;4.57;1.88;;;19.30;66.00;;;;;;5007788;28;20330;-78
2022/06/26 00:10:11;;;;;;;2.30;1.75;;;19.20;66.00;;;;;;5011726;28;20146;-78
2022/06/26 00:12:37;;;;;;;3.40;1.40;;;19.20;66.20;;;;;;5034745;28;20061;-78
2022/06/26 00:15:03;;;;;;;1.80;1.70;;;19.20;66.30;;;;;;5001123;28;20029;-78
2022/06/26 00:17:28;;;;;;;3.40;1.83;;;19.10;66.20;;;;;;4997803;28;20529;-76
2022/06/26 00:19:54;;;;;;;1.58;1.30;;;19.10;66.30;;;;;;5014108;28;20045;-77
2022/06/26 00:22:20;;;;;;;2.65;2.30;;;19.10;66.40;;;;;;4999613;28;20034;-76
2022/06/26 00:24:46;;;;;;;5.05;1.67;;;19.00;66.40;;;;;;5009415;28;20086;-78
2022/06/26 00:27:12;;;;;;;3.97;1.70;;;19.00;66.50;;;;;;5015671;28;20026;-78
2022/06/26 00:29:37;;;;;;;1.98;1.63;;;19.00;66.80;;;;;;5026407;28;20150;-77
2022/06/26 00:32:04;;;;;;;2.80;1.50;;;19.00;66.90;;;;;;4986211;28;20453;-77
2022/06/26 00:34:29;;;;;;;3.60;1.80;;;18.90;66.80;;;;;;4999847;28;20034;-78
2022/06/26 00:36:55;;;;;;;5.93;2.20;;;18.90;67.00;;;;;;5000721;28;20045;-76
2022/06/26 00:39:20;;;;;;;3.78;1.77;;;18.90;67.10;;;;;;4984949;28;20069;-78
2022/06/26 00:41:46;;;;;;;2.03;1.70;;;18.80;67.20;;;;;;4997047;28;20037;-77
2022/06/26 00:44:13;;;;;;;5.70;1.83;;;18.80;67.40;;;;;;4996477;28;20031;-77
2022/06/26 00:46:38;;;;;;;1.98;1.77;;;18.80;67.50;;;;;;4992831;28;20500;-76
2022/06/26 00:49:04;;;;;;;5.10;1.98;;;18.70;67.40;;;;;;5002113;28;20040;-78
2022/06/26 00:51:29;;;;;;;4.97;1.85;;;18.70;67.60;;;;;;4998814;28;21737;-77
2022/06/26 00:53:55;;;;;;;2.95;1.75;;;18.70;67.70;;;;;;5008404;28;20120;-75
2022/06/26 00:56:20;;;;;;;2.70;1.80;;;18.70;67.70;;;;;;4999883;28;20473;-78
2022/06/26 00:58:46;;;;;;;1.90;1.70;;;18.60;67.80;;;;;;5010870;28;20576;-78
2022/06/26 01:01:12;;;;;;;2.40;1.83;;;18.60;68.00;;;;;;4992107;28;20501;-77
2022/06/26 01:03:37;;;;;;;2.83;1.80;;;18.60;68.10;;;;;;5003599;28;20109;-77
2022/06/26 01:06:07;;;;;;;4.40;1.60;;;18.50;68.20;;;;;;4995347;28;20123;-77
2022/06/26 01:08:34;;;;;;;2.53;1.90;;;18.50;68.20;;;;;;4976863;28;20030;-76
2022/06/26 01:10:59;;;;;;;4.40;1.77;;;18.50;68.40;;;;;;4999969;28;20048;-76
2022/06/26 01:13:25;;;;;;;2.78;1.90;;;18.40;68.60;;;;;;4993082;28;20029;-77
2022/06/26 01:15:51;;;;;;;2.35;1.80;;;18.40;68.60;;;;;;4993115;28;20125;-77
2022/06/26 01:18:16;;;;;;;2.22;1.80;;;18.40;68.70;;;;;;4994261;28;20437;-77
2022/06/26 01:20:42;;;;;;;3.22;2.20;;;18.40;68.70;;;;;;5002548;28;20320;-78
2022/06/26 01:23:07;;;;;;;3.75;1.80;;;18.30;68.80;;;;;;5009543;28;20040;-77
2022/06/26 01:25:46;;;;;;;3.00;1.80;;;18.30;69.00;;;;;;4993201;28;20143;-77
2022/06/26 01:28:12;;;;;;;2.38;1.70;;;18.30;69.30;;;;;;4998258;28;20042;-78
2022/06/26 01:30:38;;;;;;;3.53;1.88;;;18.30;69.10;;;;;;4979158;28;20682;-78
2022/06/26 01:33:05;;;;;;;2.33;1.98;;;18.30;69.10;;;;;;4991933;28;20042;-78
2022/06/26 01:35:31;;;;;;;3.47;2.00;;;18.20;69.20;;;;;;4987818;28;20103;-77
2022/06/26 01:38:06;;;;;;;2.83;1.95;;;18.20;69.40;;;;;;5005990;28;20034;-78
2022/06/26 01:40:32;;;;;;;2.53;2.33;;;18.20;69.50;;;;;;4994818;28;20301;-78
2022/06/26 01:42:57;;;;;;;2.28;2.08;;;18.20;69.60;;;;;;4998177;28;20080;-76
2022/06/26 01:45:23;;;;;;;3.65;2.08;;;18.20;69.80;;;;;;5016685;28;20033;-78
2022/06/26 01:47:48;;;;;;;1.98;1.88;;;18.10;69.80;;;;;;5011150;28;20033;-77
2022/06/26 01:50:14;;;;;;;4.20;2.40;;;18.10;70.10;;;;;;5011401;28;20093;-77
2022/06/26 01:52:39;;;;;;;1.90;1.80;;;18.00;70.00;;;;;;5007770;28;20055;-76
2022/06/26 01:55:05;;;;;;;2.70;2.03;;;18.00;70.10;;;;;;5010990;28;20038;-76
2022/06/26 01:57:31;;;;;;;3.05;1.88;;;18.00;70.10;;;;;;4979668;28;20038;-78
2022/06/26 01:59:56;;;;;;;4.30;2.03;;;18.00;70.30;;;;;;4995395;28;20074;-77
2022/06/26 02:02:22;;;;;;;2.75;2.10;;;17.90;70.30;;;;;;4998486;28;20104;-77
2022/06/26 02:04:47;;;;;;;4.95;1.98;;;17.90;70.40;;;;;;5014040;28;20103;-77
2022/06/26 02:07:13;;;;;;;2.30;2.05;;;17.90;70.70;;;;;;5010648;28;20562;-77
2022/06/26 02:15:24;;;;;;;2.72;2.08;;;17.90;70.70;;;;;;5001207;28;20122;-77
2022/06/26 02:17:49;;;;;;;4.55;2.30;;;17.80;70.60;;;;;;5016991;28;20148;-76
2022/06/26 02:20:15;;;;;;;1.80;1.70;;;17.80;70.80;;;;;;4998478;28;20075;-76
2022/06/26 02:22:40;;;;;;;4.10;2.20;;;17.80;70.80;;;;;;5004457;28;20033;-76
2022/06/26 02:25:08;;;;;;;4.78;2.70;;;17.80;70.80;;;;;;5010086;28;20112;-76
2022/06/26 02:27:34;;;;;;;4.03;2.10;;;17.80;70.90;;;;;;5001844;28;20045;-76
2022/06/26 02:30:00;;;;;;;3.67;2.25;;;17.70;70.80;;;;;;5008327;28;20765;-76
2022/06/26 02:32:25;;;;;;;3.10;2.28;;;17.70;70.90;;;;;;5012800;28;20038;-76
2022/06/26 02:34:51;;;;;;;5.85;2.20;;;17.70;71.10;;;;;;5015064;28;20061;-76
2022/06/26 02:37:16;;;;;;;2.97;2.15;;;17.60;71.20;;;;;;4981013;28;20444;-76
2022/06/26 02:39:42;;;;;;;3.45;2.33;;;17.50;71.20;;;;;;4993660;28;20037;-76
2022/06/26 02:42:07;;;;;;;5.20;2.10;;;17.50;71.50;;;;;;5022183;28;20060;-76
2022/06/26 02:44:34;;;;;;;2.92;2.00;;;17.40;71.50;;;;;;5013132;28;20082;-76
2022/06/26 02:47:00;;;;;;;4.43;2.83;;;17.40;71.50;;;;;;4975458;28;20034;-76
2022/06/26 02:49:25;;;;;;;4.43;2.17;;;17.50;71.70;;;;;;5002722;28;20287;-75
2022/06/26 02:51:51;;;;;;;2.85;2.05;;;17.40;71.80;;;;;;5018362;28;20121;-77
2022/06/26 02:54:16;;;;;;;3.72;2.30;;;17.40;72.00;;;;;;4976354;28;20605;-77
2022/06/26 02:56:42;;;;;;;2.72;2.13;;;17.40;72.10;;;;;;4991371;28;20440;-76
2022/06/26 02:59:08;;;;;;;2.95;2.28;;;17.40;72.10;;;;;;5023596;28;20037;-76
2022/06/26 03:01:33;;;;;;;8.50;2.88;;;17.40;72.30;;;;;;5022249;28;20104;-77
2022/06/26 03:03:59;;;;;;;5.10;2.38;;;17.40;72.30;;;;;;5007151;28;20195;-76
2022/06/26 03:06:24;;;;;;;3.60;2.33;;;17.30;72.40;;;;;;5023375;28;20413;-76
2022/06/26 03:08:50;;;;;;;3.40;2.10;;;17.30;72.50;;;;;;4999131;28;20045;-78
2022/06/26 03:11:15;;;;;;;2.33;2.10;;;17.30;72.60;;;;;;5008077;28;20042;-77
2022/06/26 03:13:41;;;;;;;3.88;2.13;;;17.20;72.60;;;;;;5000376;28;20049;-76
2022/06/26 03:16:06;;;;;;;4.43;2.22;;;17.20;72.50;;;;;;5002913;28;20286;-76
2022/06/26 03:18:32;;;;;;;4.38;2.67;;;17.20;72.60;;;;;;5004159;28;20124;-76
2022/06/26 03:20:57;;;;;;;2.85;2.55;;;17.20;72.60;;;;;;5016091;28;20145;-76
2022/06/26 03:24:01;;;;;;;3.35;2.47;;;17.20;72.90;;;;;;4983678;28;20045;-76
2022/06/26 03:26:11;;;;;;;3.17;2.47;;;17.20;73.00;;;;;;4998254;28;20096;-76
2022/06/26 03:28:37;;;;;;;2.33;2.03;;;17.20;73.10;;;;;;4988698;28;20186;-75
2022/06/26 03:31:03;;;;;;;2.70;2.42;;;17.20;73.10;;;;;;5010958;28;20040;-75
2022/06/26 03:33:28;;;;;;;3.40;2.17;;;17.20;73.20;;;;;;4984437;28;20037;-76
2022/06/26 03:35:54;;;;;;;4.53;2.42;;;17.10;73.00;;;;;;4998964;28;20048;-76
2022/06/26 03:38:19;;;;;;;5.57;2.60;;;17.10;73.20;;;;;;5004360;28;20317;-75
2022/06/26 03:40:45;;;;;;;4.93;2.88;;;17.10;73.30;;;;;;5018987;28;20045;-76
2022/06/26 03:43:11;;;;;;;4.38;2.08;;;17.10;73.30;;;;;;5017774;28;20034;-77
2022/06/26 03:45:38;;;;;;;3.28;2.60;;;17.10;73.50;;;;;;4998151;28;20555;-77
2022/06/26 03:48:04;;;;;;;3.53;2.70;;;17.10;73.50;;;;;;5023569;28;20037;-75
2022/06/26 03:50:29;;;;;;;6.68;2.63;;;17.10;73.50;;;;;;5014432;28;20141;-76
2022/06/26 03:52:55;;;;;;;8.05;2.78;;;17.10;73.70;;;;;;5009968;28;20103;-76
2022/06/26 03:55:20;;;;;;;2.72;2.53;;;17.10;73.90;;;;;;5024500;28;20265;-76
2022/06/26 03:57:46;;;;;;;2.72;2.33;;;17.00;73.90;;;;;;5025184;28;20060;-76
2022/06/26 04:00:12;;;;;;;8.07;3.67;;;17.10;74.10;;;;;;5002743;28;20026;-76
2022/06/26 04:02:37;;;;;;;3.35;2.28;;;17.10;74.10;;;;;;5010840;28;20290;-76
2022/06/26 04:05:04;;;;;;;3.22;2.10;;;17.10;74.20;;;;;;5006242;28;20313;-75
2022/06/26 04:07:30;;;;;;;2.35;2.20;;;17.10;74.30;;;;;;4997094;28;20065;-76
2022/06/26 04:09:56;;;;;;;4.55;3.15;;;17.10;74.30;;;;;;4988448;28;20046;-76
2022/06/26 04:12:22;;;;;;;4.47;2.30;;;17.10;74.30;;;;;;5016103;28;20116;-76
2022/06/26 04:14:47;;;;;;;5.45;2.80;;;17.10;74.40;;;;;;5014614;28;20045;-76
2022/06/26 04:17:14;;;;;;;2.30;2.10;;;17.20;74.50;;;;;;4998891;28;20362;-76
2022/06/26 04:19:40;;;;;;;3.15;2.10;;;17.20;74.50;;;;;;5005365;28;20070;-76
2022/06/26 04:22:05;;;;;;;4.15;2.47;;;17.20;74.50;;;;;;5005541;28;20337;-75
2022/06/26 04:24:31;;;;;;;5.82;3.38;;;17.20;74.60;;;;;;4985745;28;20037;-76
2022/06/26 04:26:57;;;;;;;3.55;2.92;;;17.20;74.70;;;;;;5018571;28;20031;-75
2022/06/26 04:29:22;;;;;;;3.40;2.17;;;17.30;74.80;;;;;;5005921;28;20050;-76
2022/06/26 04:31:48;;;;;;;5.13;2.78;;;17.40;74.90;;;;;;4988241;28;20041;-76
2022/06/26 04:34:13;;;;;;;4.20;2.58;;;17.40;74.80;;;;;;5012042;28;20508;-76
2022/06/26 04:36:39;;;;;;;3.35;2.80;;;17.40;74.80;;;;;;5046834;28;20532;-76
2022/06/26 04:39:04;;;;;;;9.73;3.28;;;17.50;74.90;;;;;;5004564;28;20192;-76
2022/06/26 04:41:36;;;;;;;5.47;3.47;;;17.60;75.00;;;;;;5005817;28;20086;-76
2022/06/26 04:44:08;;;;;;;5.05;3.60;;;17.70;75.10;;;;;;5013076;28;20231;-76
2022/06/26 04:46:35;;;;;;;3.47;2.95;;;17.70;75.40;;;;;;4989981;28;20101;-76
2022/06/26 04:49:01;;;;;;;4.40;2.95;;;17.80;75.30;;;;;;5017749;28;20694;-76
2022/06/26 04:51:26;;;;;;;3.60;2.97;;;17.80;75.20;;;;;;4995017;28;20043;-77
2022/06/26 04:53:52;;;;;;;3.58;3.25;;;17.90;75.10;;;;;;4997972;28;20665;-77
2022/06/26 04:56:17;;;;;;;6.72;3.97;;;17.90;75.10;;;;;;4994611;28;20044;-76
2022/06/26 04:58:43;;;;;;;4.50;3.17;;;18.00;75.30;;;;;;4978930;28;20674;-76
2022/06/26 05:01:08;;;;;;;6.13;3.45;;;18.00;75.40;;;;;;5005848;28;20162;-77
2022/06/26 05:03:34;;;;;;;5.13;2.55;;;18.00;75.60;;;;;;5011748;28;20540;-77
2022/06/26 05:05:59;;;;;;;3.90;3.38;;;18.10;75.50;;;;;;5002372;28;20649;-76
2022/06/26 05:08:25;;;;;;;3.08;2.78;;;18.10;75.30;;;;;;4978141;28;20514;-76
2022/06/26 05:10:51;;;;;;;6.38;3.38;;;18.10;75.20;;;;;;4970459;28;20721;-77
2022/06/26 05:13:16;;;;;;;6.38;3.83;;;18.10;75.20;;;;;;4997395;28;20030;-76
2022/06/26 05:15:42;;;;;;;4.47;3.17;;;18.20;75.40;;;;;;5001384;28;20033;-76
2022/06/26 05:18:08;;;;;;;3.25;2.85;;;18.20;75.60;;;;;;5012028;28;20033;-77
2022/06/26 05:20:33;;;;;;;5.57;3.25;;;18.30;75.60;;;;;;5002775;28;20048;-77
2022/06/26 05:22:59;;;;;;;3.30;2.70;;;18.30;75.60;;;;;;4985295;28;20553;-76
2022/06/26 05:25:24;;;;;;;5.95;3.10;;;18.30;75.40;;;;;;5021167;28;20030;-77
2022/06/26 05:27:50;;;;;;;3.80;3.08;;;18.40;75.50;;;;;;5005137;28;20030;-77
2022/06/26 05:30:15;;;;;;;4.97;3.78;;;18.40;75.50;;;;;;4992465;28;20469;-77
2022/06/26 05:32:41;;;;;;;5.43;3.20;;;18.50;75.50;;;;;;4997881;28;20033;-76
2022/06/26 05:35:07;;;;;;;5.75;3.17;;;18.50;75.60;;;;;;5006505;28;20650;-76
2022/06/26 05:37:33;;;;;;;4.38;3.10;;;18.60;75.80;;;;;;5006111;28;20041;-77
2022/06/26 05:39:58;;;;;;;3.30;3.00;;;18.60;75.60;;;;;;5007733;28;20037;-77
2022/06/26 05:42:24;;;;;;;4.35;2.97;;;18.60;75.50;;;;;;5011095;28;20767;-77
2022/06/26 05:44:49;;;;;;;5.82;3.10;;;18.70;75.50;;;;;;4995892;28;20038;-77
2022/06/26 05:47:15;;;;;;;3.42;2.80;;;18.70;75.20;;;;;;5022448;28;20106;-76
2022/06/26 05:49:40;;;;;;;3.25;3.05;;;18.70;75.10;;;;;;5016440;28;20292;-76
2022/06/26 05:52:06;;;;;;;5.60;3.08;;;18.80;75.20;;;;;;5015670;28;20234;-77
2022/06/26 05:54:32;;;;;;;4.50;3.10;;;18.90;75.10;;;;;;4988008;28;20100;-78
2022/06/26 05:56:57;;;;;;;5.07;2.90;;;18.90;75.20;;;;;;5028911;28;20044;-77
2022/06/26 05:59:23;;;;;;;3.22;2.95;;;18.90;75.20;;;;;;5003465;28;20049;-78
2022/06/26 06:01:49;;;;;;;5.75;3.10;;;19.00;74.90;;;;;;5011370;28;20076;-78
2022/06/26 06:04:14;;;;;;;5.15;3.30;;;19.10;74.90;;;;;;5010128;28;20037;-77
2022/06/26 06:06:40;;;;;;;3.40;2.80;;;19.20;75.10;;;;;;5027955;28;20168;-78
2022/06/26 06:09:05;;;;;;;3.78;3.10;;;19.30;74.90;;;;;;5001922;28;20151;-78
2022/06/26 06:11:31;;;;;;;5.28;3.72;;;19.40;74.70;;;;;;5029085;28;20095;-77
2022/06/26 06:13:57;;;;;;;4.15;3.80;;;19.40;74.50;;;;;;5036902;28;20071;-77
2022/06/26 06:16:22;;;;;;;3.85;3.17;;;19.50;74.60;;;;;;5008471;28;20406;-78
2022/06/26 06:18:48;;;;;;;5.63;3.60;;;19.60;74.40;;;;;;4998026;28;20145;-79
2022/06/26 06:21:13;;;;;;;4.32;3.10;;;19.60;75.00;;;;;;4990854;28;20041;-79
2022/06/26 06:23:39;;;;;;;5.78;3.60;;;19.80;74.10;;;;;;4986875;28;20532;-79
2022/06/26 06:26:05;;;;;;;5.32;3.17;;;19.80;73.90;;;;;;5001994;28;20045;-79
2022/06/26 06:28:31;;;;;;;5.90;3.00;;;19.90;73.80;;;;;;4991394;28;20038;-78
2022/06/26 06:30:56;;;;;;;4.70;3.80;;;20.00;73.50;;;;;;4986813;28;20046;-79
2022/06/26 06:33:22;;;;;;;4.15;3.78;;;20.10;73.30;;;;;;5000395;28;20057;-78
2022/06/26 06:35:48;;;;;;;7.35;3.40;;;20.10;73.20;;;;;;5009156;28;20100;-80
2022/06/26 06:38:14;;;;;;;5.38;3.33;;;20.30;73.30;;;;;;4973161;28;20476;-78
2022/06/26 06:40:40;;;;;;;5.95;3.47;;;20.40;73.10;;;;;;5010848;28;20048;-79
2022/06/26 06:43:09;;;;;;;3.72;3.35;;;20.50;72.80;;;;;;4998517;28;20045;-78
2022/06/26 06:45:35;;;;;;;3.88;3.10;;;20.70;72.50;;;;;;4981767;28;20112;-78
2022/06/26 06:48:01;;;;;;;3.35;3.05;;;20.80;72.20;;;;;;4981729;28;20033;-78
2022/06/26 06:50:26;;;;;;;4.05;3.40;;;20.90;72.00;;;;;;4998626;28;20042;-80
2022/06/26 06:52:52;;;;;;;4.05;3.45;;;21.10;71.70;;;;;;4981797;28;20041;-79
2022/06/26 06:55:17;;;;;;;5.53;3.05;;;21.20;71.40;;;;;;4990994;28;20033;-80
2022/06/26 06:57:43;;;;;;;7.35;3.38;;;21.40;71.30;;;;;;5005631;28;20045;-78
2022/06/26 07:00:09;;;;;;;3.55;2.78;;;21.50;71.00;;;;;;4978749;28;20019;-79
2022/06/26 07:02:37;;;;;;;4.22;3.05;;;21.70;70.80;;;;;;5008253;28;20038;-79
2022/06/26 07:05:04;;;;;;;4.18;2.90;;;21.80;70.40;;;;;;4993213;28;20111;-79
2022/06/26 07:07:29;;;;;;;3.95;3.15;;;22.00;70.00;;;;;;4992553;28;20056;-79
2022/06/26 07:09:55;;;;;;;2.97;2.78;;;22.20;69.50;;;;;;5005758;28;20045;-78
2022/06/26 07:12:20;;;;;;;5.00;2.83;;;22.40;69.10;;;;;;4991610;28;20048;-78
2022/06/26 07:14:46;;;;;;;3.22;2.85;;;22.60;68.80;;;;;;5013088;28;20469;-80
2022/06/26 07:17:11;;;;;;;3.40;2.15;;;22.80;68.30;;;;;;4974444;28;20138;-79
2022/06/26 07:19:37;;;;;;;5.63;2.72;;;23.00;67.80;;;;;;5004355;28;20082;-80
2022/06/26 07:22:03;;;;;;;4.15;2.33;;;23.20;67.40;;;;;;5014942;28;20450;-79
2022/06/26 07:24:28;;;;;;;4.00;2.85;;;23.40;67.00;;;;;;5016924;28;20032;-79
2022/06/26 07:26:54;;;;;;;4.38;2.58;;;23.50;66.50;;;;;;5008317;28;20443;-79
2022/06/26 07:29:19;;;;;;;5.90;2.42;;;23.70;66.10;;;;;;4991925;28;20182;-79
2022/06/26 07:31:45;;;;;;;4.40;2.63;;;23.90;65.70;;;;;;5003745;28;20049;-79
2022/06/26 07:34:13;;;;;;;2.70;2.50;;;24.10;65.20;;;;;;5002086;28;20109;-79
2022/06/26 07:36:47;;;;;;;4.53;2.55;;;24.20;64.80;;;;;;4994215;28;20119;-79
2022/06/26 07:39:14;;;;;;;4.78;2.72;;;24.40;64.30;;;;;;4967783;28;20034;-79
2022/06/26 07:41:40;;;;;;;3.13;2.65;;;24.60;64.10;;;;;;5007135;28;20452;-79
2022/06/26 07:44:06;;;;;;;4.70;2.80;;;24.70;63.80;;;;;;5000983;28;20030;-81
2022/06/26 07:46:32;;;;;;;3.78;2.33;;;24.90;63.30;;;;;;5005044;28;20049;-79
2022/06/26 07:48:58;;;;;;;4.38;2.90;;;25.00;62.90;;;;;;5000882;28;20246;-77
2022/06/26 07:51:23;;;;;;;2.80;2.47;;;25.10;62.30;;;;;;5000421;28;20058;-76
2022/06/26 07:53:49;;;;;;;4.35;2.40;;;25.30;62.10;;;;;;4969293;28;20038;-76
2022/06/26 07:56:15;;;;;;;4.15;2.67;;;25.40;61.70;;;;;;4993506;28;20144;-77
2022/06/26 07:58:40;;;;;;;2.85;2.15;;;25.60;61.40;;;;;;5006895;28;20037;-77
2022/06/26 08:01:06;;;;;;;2.88;2.30;;;25.70;61.20;;;;;;4992111;28;21501;-77
2022/06/26 08:03:31;;;;;;;3.08;2.10;;;25.90;60.80;;;;;;5015597;28;20037;-77
2022/06/26 08:05:57;;;;;;;5.57;2.28;;;26.10;60.40;;;;;;5014768;28;20518;-77
2022/06/26 08:08:22;;;;;;;3.75;2.33;;;26.30;60.00;;;;;;5005350;28;20593;-76
2022/06/26 08:10:48;;;;;;;2.53;2.00;;;26.40;59.60;;;;;;4996110;28;20517;-78
2022/06/26 08:13:13;;;;;;;3.95;1.92;;;26.50;59.20;;;;;;4983140;28;20228;-77
2022/06/26 08:15:39;;;;;;;1.73;1.63;;;26.70;58.70;;;;;;5011449;28;20501;-77
2022/06/26 08:18:05;;;;;;;1.70;1.50;;;26.80;58.30;;;;;;4989806;28;20498;-77
2022/06/26 08:20:31;;;;;;;2.97;2.00;;;27.00;57.90;;;;;;4986752;28;20458;-77
2022/06/26 08:22:56;;;;;;;4.15;1.58;;;27.10;57.50;;;;;;4997080;28;20489;-78
2022/06/26 08:25:22;;;;;;;2.40;1.50;;;27.20;57.10;;;;;;5003417;28;20418;-78
2022/06/26 08:27:48;;;;;;;1.67;1.23;;;27.40;56.80;;;;;;4995003;28;20398;-77
2022/06/26 08:30:13;;;;;;;1.30;1.20;;;27.60;56.30;;;;;;5006433;28;20046;-79
2022/06/26 08:32:39;;;;;;;1.60;1.50;;;27.70;55.80;;;;;;5014662;28;20042;-80
2022/06/26 08:35:05;;;;;;;2.15;1.48;;;27.90;55.40;;;;;;5004436;28;20698;-79
2022/06/26 08:37:31;;;;;;;1.63;1.52;;;28.10;54.90;;;;;;5004610;28;20037;-78
2022/06/26 08:39:56;;;;;;;1.50;1.40;;;28.30;54.40;;;;;;4996446;28;20040;-79
2022/06/26 08:42:22;;;;;;;2.88;1.30;;;28.40;54.10;;;;;;5007377;28;20039;-78
2022/06/26 08:44:47;;;;;;;1.10;1.10;;;28.50;53.70;;;;;;5016218;28;20033;-78
2022/06/26 08:47:14;;;;;;;1.20;1.10;;;28.70;53.50;;;;;;5002390;28;20089;-78
2022/06/26 08:49:42;;;;;;;2.35;1.58;;;28.90;53.10;;;;;;4981777;28;20048;-78
2022/06/26 08:52:13;;;;;;;2.72;1.15;;;29.10;52.70;;;;;;5006717;28;20034;-78
2022/06/26 08:54:38;;;;;;;3.15;1.40;;;29.20;52.10;;;;;;4961618;28;20632;-78
2022/06/26 08:57:04;;;;;;;3.10;1.48;;;29.30;52.00;;;;;;4993914;28;20045;-78
2022/06/26 08:59:30;;;;;;;1.50;1.35;;;29.40;51.70;;;;;;5001138;28;20183;-77
2022/06/26 09:01:55;;;;;;;1.35;1.25;;;29.50;51.40;;;;;;4986932;28;20038;-77
2022/06/26 09:04:22;;;;;;;1.20;1.10;;;29.60;51.30;;;;;;5014555;28;20041;-78
2022/06/26 09:06:48;;;;;;;1.65;1.27;;;29.80;51.00;;;;;;5011892;28;20408;-79
2022/06/26 09:09:24;;;;;;;1.45;1.20;;;29.90;50.30;;;;;;4996428;28;20093;-77
2022/06/26 09:11:51;;;;;;;2.85;1.50;;;30.10;49.90;;;;;;5029786;28;20075;-78
2022/06/26 09:14:17;;;;;;;2.25;1.55;;;30.20;49.70;;;;;;5031380;28;20037;-77
2022/06/26 09:16:43;;;;;;;1.88;1.45;;;30.40;49.50;;;;;;5019004;28;20544;-78
2022/06/26 09:19:20;;;;;;;1.20;1.10;;;30.50;49.10;;;;;;5001529;28;20132;-78
2022/06/26 09:21:46;;;;;;;1.42;1.33;;;30.60;48.70;;;;;;5023456;28;20433;-78
2022/06/26 09:24:13;;;;;;;3.22;1.20;;;30.70;48.70;;;;;;4998060;28;20065;-78
2022/06/26 09:26:39;;;;;;;1.20;1.15;;;30.80;48.50;;;;;;4993991;28;20033;-79
2022/06/26 09:29:11;;;;;;;1.25;1.15;;;31.00;48.10;;;;;;4980611;28;20046;-78
2022/06/26 09:31:37;;;;;;;2.25;1.40;;;31.20;47.60;;;;;;4967991;28;20529;-77
2022/06/26 09:34:04;;;;;;;1.30;1.20;;;31.40;47.40;;;;;;4987890;28;20128;-78
2022/06/26 09:36:30;;;;;;;1.45;1.35;;;31.50;47.10;;;;;;5006944;28;20034;-77
2022/06/26 09:38:55;;;;;;;1.15;1.10;;;31.70;46.70;;;;;;4987195;28;20037;-77
2022/06/26 09:41:32;;;;;;;1.83;1.40;;;31.80;46.50;;;;;;4992837;28;20460;-77
2022/06/26 09:43:57;;;;;;;1.80;1.30;;;31.90;45.80;;;;;;5008374;28;20041;-78
2022/06/26 09:46:30;;;;;;;2.53;1.30;;;32.10;46.20;;;;;;4964597;28;20091;-79
2022/06/26 09:48:57;;;;;;;1.10;1.10;;;32.20;45.40;;;;;;4986315;28;20592;-78
2022/06/26 09:51:23;;;;;;;1.33;1.00;;;32.30;45.60;;;;;;4989777;28;20049;-78
2022/06/26 09:53:48;;;;;;;1.88;1.10;;;32.50;45.50;;;;;;4994229;28;20292;-79
2022/06/26 09:56:14;;;;;;;1.23;1.08;;;32.70;45.10;;;;;;4986149;28;20050;-78
2022/06/26 09:58:39;;;;;;;1.17;1.10;;;32.90;44.90;;;;;;5000540;28;20037;-78
2022/06/26 10:06:33;;;;;;;2.25;1.00;;;32.90;43.90;;;;;;5001973;28;20416;-78
2022/06/26 10:09:01;;;;;;;2.03;1.05;;;33.00;43.90;;;;;;5011952;28;20045;-80
2022/06/26 10:11:28;;;;;;;1.52;1.35;;;33.00;43.80;;;;;;5026126;28;20371;-78
2022/06/26 10:13:57;;;;;;;1.52;1.30;;;33.10;43.50;;;;;;5015295;28;20044;-80
2022/06/26 10:17:00;;;;;;;1.20;1.10;;;33.10;43.40;;;;;;5025411;28;20045;-78
2022/06/26 10:19:51;;;;;;;4.40;1.20;;;33.10;42.40;;;;;;4981536;28;20053;-79
2022/06/26 10:22:17;;;;;;;1.30;1.20;;;33.20;42.90;;;;;;5007484;28;20096;-78
2022/06/26 10:24:53;;;;;;;1.10;1.00;;;33.30;43.20;;;;;;4981446;28;20042;-80
2022/06/26 10:27:26;;;;;;;2.38;1.20;;;33.50;42.20;;;;;;4994360;28;20283;-80
2022/06/26 10:30:05;;;;;;;1.00;0.95;;;33.60;42.40;;;;;;4997709;28;20060;-79
2022/06/26 10:32:30;;;;;;;2.17;1.10;;;33.80;42.00;;;;;;4990568;28;20409;-80
2022/06/26 10:34:56;;;;;;;2.75;0.80;;;33.80;42.40;;;;;;5000340;28;20180;-80
2022/06/26 10:37:22;;;;;;;1.10;1.00;;;34.00;42.10;;;;;;5007278;28;20719;-79
2022/06/26 10:39:49;;;;;;;1.92;0.80;;;34.20;41.70;;;;;;4991726;28;20050;-79
2022/06/26 10:45:40;;;;;;;0.85;0.85;;;34.40;41.20;;;;;;4991144;28;20040;-78
2022/06/26 10:48:26;;;;;;;0.88;0.80;;;34.70;40.40;;;;;;4994572;28;20030;-79
2022/06/26 10:51:01;;;;;;;39.47;7.40;;;34.90;40.90;;;;;;4999718;28;20029;-79
2022/06/26 10:53:30;;;;;;;19.60;5.00;;;35.20;41.50;;;;;;4984242;28;20120;-78
2022/06/26 10:56:00;;;;;;;9.48;2.92;;;35.40;40.40;;;;;;5001033;28;20037;-78
2022/06/26 10:58:27;;;;;;;3.92;1.67;;;35.50;39.90;;;;;;5002443;28;20041;-79
2022/06/26 11:00:54;;;;;;;3.83;1.10;;;35.60;39.90;;;;;;4983410;28;20041;-79
2022/06/26 11:03:20;;;;;;;0.95;0.85;;;35.70;39.50;;;;;;4995977;28;20033;-79
2022/06/26 11:06:02;;;;;;;1.77;1.25;;;35.70;39.10;;;;;;5004827;28;20039;-79
2022/06/26 11:08:30;;;;;;;1.85;1.20;;;35.70;38.50;;;;;;4978136;28;20127;-78
2022/06/26 11:11:14;;;;;;;2.05;1.10;;;35.70;39.00;;;;;;5001602;28;20026;-79
2022/06/26 11:13:59;;;;;;;1.20;1.10;;;35.70;38.00;;;;;;5002014;28;20587;-79
2022/06/26 11:16:48;;;;;;;2.67;1.02;;;35.70;37.80;;;;;;4999492;28;20037;-79
2022/06/26 11:19:27;;;;;;;0.70;0.70;;;35.70;38.80;;;;;;4979702;28;20073;-78
2022/06/26 11:22:09;;;;;;;1.58;0.90;;;35.80;38.00;;;;;;5001653;28;20034;-79
2022/06/26 11:24:35;;;;;;;1.42;0.90;;;36.00;37.70;;;;;;4975742;28;20067;-79
2022/06/26 11:27:01;;;;;;;0.60;0.60;;;36.10;38.30;;;;;;4979050;28;20034;-79
2022/06/26 11:29:27;;;;;;;1.08;0.80;;;36.10;38.00;;;;;;4985192;28;20046;-79
2022/06/26 11:31:52;;;;;;;2.25;0.80;;;36.20;37.70;;;;;;4998189;28;20040;-78
2022/06/26 11:34:18;;;;;;;0.82;0.65;;;36.20;37.70;;;;;;4993980;28;20034;-78
2022/06/26 11:36:59;;;;;;;2.58;0.60;;;36.40;37.60;;;;;;5012434;28;20052;-79
2022/06/26 11:39:37;;;;;;;1.05;0.98;;;36.60;37.00;;;;;;4978932;28;20045;-79
2022/06/26 11:42:13;;;;;;;0.60;0.60;;;36.80;37.10;;;;;;4985714;28;20038;-79
2022/06/26 11:44:46;;;;;;;0.85;0.85;;;36.70;36.50;;;;;;4979011;28;20034;-79
2022/06/26 11:47:12;;;;;;;1.00;0.90;;;36.60;36.00;;;;;;5000749;28;20040;-78
2022/06/26 11:49:38;;;;;;;0.77;0.77;;;36.40;36.30;;;;;;4996522;28;20361;-78
2022/06/26 11:52:04;;;;;;;0.90;0.70;;;36.20;37.00;;;;;;4997638;28;20319;-78
2022/06/26 11:54:29;;;;;;;0.68;0.50;;;36.00;36.40;;;;;;5014320;28;20044;-78
2022/06/26 11:56:55;;;;;;;0.88;0.88;;;36.00;36.60;;;;;;4986920;28;20498;-79
2022/06/26 11:59:21;;;;;;;4.13;0.93;;;36.20;36.50;;;;;;5001563;28;20034;-78
2022/06/26 12:01:46;;;;;;;0.57;0.57;;;36.30;36.40;;;;;;5008635;28;20045;-79
2022/06/26 12:04:12;;;;;;;1.48;0.70;;;36.40;36.30;;;;;;5010726;28;20107;-78
2022/06/26 12:06:40;;;;;;;0.60;0.60;;;36.30;36.10;;;;;;5022569;28;20038;-78
2022/06/26 12:09:19;;;;;;;1.38;0.60;;;36.30;36.20;;;;;;4985685;28;20095;-78
2022/06/26 12:11:46;;;;;;;1.05;0.80;;;36.40;35.30;;;;;;4987653;28;20034;-78
2022/06/26 12:14:12;;;;;;;0.80;0.70;;;36.40;35.70;;;;;;4999265;28;20030;-78
2022/06/26 12:16:48;;;;;;;0.70;0.68;;;36.40;35.20;;;;;;5011836;28;20052;-78
2022/06/26 12:19:13;;;;;;;1.33;0.50;;;36.50;35.10;;;;;;5003065;28;20056;-78
2022/06/26 12:21:39;;;;;;;0.95;0.80;;;36.50;35.30;;;;;;4985185;28;20140;-80
2022/06/26 12:24:12;;;;;;;1.40;0.60;;;36.40;35.10;;;;;;4996269;28;20060;-79
2022/06/26 12:26:38;;;;;;;1.38;0.60;;;36.50;34.70;;;;;;5020465;28;20094;-79
2022/06/26 12:29:11;;;;;;;0.63;0.60;;;36.50;35.00;;;;;;5023021;28;20045;-79
2022/06/26 12:31:37;;;;;;;1.63;0.70;;;36.60;34.80;;;;;;5021923;28;20030;-79
2022/06/26 12:34:05;;;;;;;1.10;0.75;;;36.60;34.90;;;;;;5005914;28;20094;-79
2022/06/26 12:36:35;;;;;;;0.50;0.50;;;36.50;34.90;;;;;;5011978;28;20050;-79
2022/06/26 12:39:01;;;;;;;0.95;0.70;;;36.40;35.10;;;;;;4998977;28;20105;-79
2022/06/26 12:41:27;;;;;;;0.55;0.50;;;36.50;35.20;;;;;;4988398;28;20112;-79
2022/06/26 12:43:54;;;;;;;0.47;0.47;;;36.50;35.30;;;;;;5007070;28;20037;-79
2022/06/26 12:46:20;;;;;;;1.75;0.82;;;36.40;35.30;;;;;;5002616;28;20036;-79
2022/06/26 12:48:45;;;;;;;1.23;1.00;;;36.40;35.40;;;;;;4986068;28;20462;-79
2022/06/26 12:51:11;;;;;;;1.33;0.70;;;36.40;35.40;;;;;;4994884;28;20041;-79
2022/06/26 12:53:37;;;;;;;1.23;0.70;;;36.30;35.30;;;;;;5007227;28;20424;-80
2022/06/26 12:56:03;;;;;;;0.65;0.60;;;36.30;35.30;;;;;;5009206;28;20060;-80
2022/06/26 12:58:28;;;;;;;0.80;0.63;;;36.20;35.20;;;;;;5026963;28;20145;-79
2022/06/26 13:00:54;;;;;;;1.25;0.65;;;36.00;35.50;;;;;;5012292;28;20567;-78